sensor_id;sensor_type;location;lat;lon;timestamp;temperature;humidity
38380;DHT22;38377;47.418;18.882;2022-10-04T00:01:58;10.60;99.90
38380;DHT22;38377;47.418;18.882;2022-10-04T00:04:41;10.60;99.90
38380;DHT22;38377;47.418;18.882;2022-10-04T00:07:17;10.60;99.90
38380;DHT22;38377;47.418;18.882;2022-10-04T00:10:03;10.50;99.90
38380;DHT22;38377;47.418;18.882;2022-10-04T00:12:34;10.60;99.90
38380;DHT22;38377;47.418;18.882;2022-10-04T00:15:04;10.60;99.90
38380;DHT22;38377;47.418;18.882;2022-10-04T00:17:31;10.50;99.90
38380;DHT22;38377;47.418;18.882;2022-10-04T00:20:01;10.60;99.90
38380;DHT22;38377;47.418;18.882;2022-10-04T00:22:30;10.50;99.90
38380;DHT22;38377;47.418;18.882;2022-10-04T00:27:27;10.50;99.90
38380;DHT22;38377;47.418;18.882;2022-10-04T00:40:34;10.40;99.90
38380;DHT22;38377;47.418;18.882;2022-10-04T00:43:26;10.40;99.90
38380;DHT22;38377;47.418;18.882;2022-10-04T00:46:14;10.40;99.90
38380;DHT22;38377;47.418;18.882;2022-10-04T00:48:46;10.50;99.90
38380;DHT22;38377;47.418;18.882;2022-10-04T00:56:52;10.50;99.90
38380;DHT22;38377;47.418;18.882;2022-10-04T01:05:00;10.30;99.90
38380;DHT22;38377;47.418;18.882;2022-10-04T01:07:34;10.30;99.90
38380;DHT22;38377;47.418;18.882;2022-10-04T01:10:39;10.30;99.90
38380;DHT22;38377;47.418;18.882;2022-10-04T01:13:16;10.30;99.90
38380;DHT22;38377;47.418;18.882;2022-10-04T01:16:00;10.30;99.90
38380;DHT22;38377;47.418;18.882;2022-10-04T01:18:30;10.30;99.90
38380;DHT22;38377;47.418;18.882;2022-10-04T01:23:39;10.30;99.90
38380;DHT22;38377;47.418;18.882;2022-10-04T01:31:31;10.30;99.90
38380;DHT22;38377;47.418;18.882;2022-10-04T01:33:59;10.30;99.90
38380;DHT22;38377;47.418;18.882;2022-10-04T01:36:25;10.30;99.90
38380;DHT22;38377;47.418;18.882;2022-10-04T01:38:53;10.40;99.90
38380;DHT22;38377;47.418;18.882;2022-10-04T01:41:24;10.40;99.90
38380;DHT22;38377;47.418;18.882;2022-10-04T01:43:54;10.40;99.90
38380;DHT22;38377;47.418;18.882;2022-10-04T01:46:27;10.40;99.90
38380;DHT22;38377;47.418;18.882;2022-10-04T01:48:56;10.50;99.90
38380;DHT22;38377;47.418;18.882;2022-10-04T01:51:37;10.50;99.90
38380;DHT22;38377;47.418;18.882;2022-10-04T01:54:10;10.50;99.90
38380;DHT22;38377;47.418;18.882;2022-10-04T01:56:44;10.40;99.90
38380;DHT22;38377;47.418;18.882;2022-10-04T01:59:28;10.40;99.90
38380;DHT22;38377;47.418;18.882;2022-10-04T02:04:55;10.30;99.90
38380;DHT22;38377;47.418;18.882;2022-10-04T02:07:22;10.30;99.90
38380;DHT22;38377;47.418;18.882;2022-10-04T02:09:55;10.20;99.90
38380;DHT22;38377;47.418;18.882;2022-10-04T02:12:25;10.20;99.90
38380;DHT22;38377;47.418;18.882;2022-10-04T02:14:53;10.10;99.90
38380;DHT22;38377;47.418;18.882;2022-10-04T02:17:22;10.10;99.90
38380;DHT22;38377;47.418;18.882;2022-10-04T02:19:50;10.10;99.90
38380;DHT22;38377;47.418;18.882;2022-10-04T02:22:17;10.00;99.90
38380;DHT22;38377;47.418;18.882;2022-10-04T02:24:45;10.00;99.90
38380;DHT22;38377;47.418;18.882;2022-10-04T02:27:12;9.90;99.90
38380;DHT22;38377;47.418;18.882;2022-10-04T02:29:38;9.90;99.90
38380;DHT22;38377;47.418;18.882;2022-10-04T02:32:05;9.80;99.90
38380;DHT22;38377;47.418;18.882;2022-10-04T02:34:51;9.80;99.90
38380;DHT22;38377;47.418;18.882;2022-10-04T02:37:23;9.80;99.90
38380;DHT22;38377;47.418;18.882;2022-10-04T02:39:52;9.80;99.90
38380;DHT22;38377;47.418;18.882;2022-10-04T02:42:37;9.70;99.90
38380;DHT22;38377;47.418;18.882;2022-10-04T02:45:11;9.70;99.90
38380;DHT22;38377;47.418;18.882;2022-10-04T02:47:51;9.80;99.90
38380;DHT22;38377;47.418;18.882;2022-10-04T02:50:38;9.80;99.90
38380;DHT22;38377;47.418;18.882;2022-10-04T02:53:20;9.70;99.90
38380;DHT22;38377;47.418;18.882;2022-10-04T02:55:52;9.70;99.90
38380;DHT22;38377;47.418;18.882;2022-10-04T02:58:21;9.70;99.90
38380;DHT22;38377;47.418;18.882;2022-10-04T03:00:49;9.70;99.90
38380;DHT22;38377;47.418;18.882;2022-10-04T03:03:25;9.70;99.90
38380;DHT22;38377;47.418;18.882;2022-10-04T03:06:07;9.70;99.90
38380;DHT22;38377;47.418;18.882;2022-10-04T03:08:55;9.60;99.90
38380;DHT22;38377;47.418;18.882;2022-10-04T03:11:22;9.50;99.90
38380;DHT22;38377;47.418;18.882;2022-10-04T03:13:52;9.50;99.90
38380;DHT22;38377;47.418;18.882;2022-10-04T03:16:20;9.40;99.90
38380;DHT22;38377;47.418;18.882;2022-10-04T03:18:47;9.40;99.90
38380;DHT22;38377;47.418;18.882;2022-10-04T03:21:17;9.40;99.90
38380;DHT22;38377;47.418;18.882;2022-10-04T03:23:44;9.40;99.90
38380;DHT22;38377;47.418;18.882;2022-10-04T03:29:18;9.30;99.90
38380;DHT22;38377;47.418;18.882;2022-10-04T03:31:48;9.30;99.90
38380;DHT22;38377;47.418;18.882;2022-10-04T03:34:16;9.30;99.90
38380;DHT22;38377;47.418;18.882;2022-10-04T03:36:43;9.30;99.90
38380;DHT22;38377;47.418;18.882;2022-10-04T03:39:11;9.30;99.90
38380;DHT22;38377;47.418;18.882;2022-10-04T03:41:40;9.30;99.90
38380;DHT22;38377;47.418;18.882;2022-10-04T03:44:13;9.20;99.90
38380;DHT22;38377;47.418;18.882;2022-10-04T03:46:40;9.20;99.90
38380;DHT22;38377;47.418;18.882;2022-10-04T03:49:07;9.20;99.90
38380;DHT22;38377;47.418;18.882;2022-10-04T03:51:33;9.30;99.90
38380;DHT22;38377;47.418;18.882;2022-10-04T03:54:00;9.30;99.90
38380;DHT22;38377;47.418;18.882;2022-10-04T03:56:34;9.30;99.90
38380;DHT22;38377;47.418;18.882;2022-10-04T03:59:04;9.30;99.90
38380;DHT22;38377;47.418;18.882;2022-10-04T04:04:00;9.30;99.90
38380;DHT22;38377;47.418;18.882;2022-10-04T04:06:39;9.20;99.90
38380;DHT22;38377;47.418;18.882;2022-10-04T04:09:08;9.20;99.90
38380;DHT22;38377;47.418;18.882;2022-10-04T04:11:38;9.30;99.90
38380;DHT22;38377;47.418;18.882;2022-10-04T04:14:21;9.30;99.90
38380;DHT22;38377;47.418;18.882;2022-10-04T04:16:48;9.30;99.90
38380;DHT22;38377;47.418;18.882;2022-10-04T04:19:16;9.30;99.90
38380;DHT22;38377;47.418;18.882;2022-10-04T04:21:45;9.30;99.90
38380;DHT22;38377;47.418;18.882;2022-10-04T04:24:18;9.30;99.90
38380;DHT22;38377;47.418;18.882;2022-10-04T04:26:52;9.30;99.90
38380;DHT22;38377;47.418;18.882;2022-10-04T04:31:55;9.40;99.90
38380;DHT22;38377;47.418;18.882;2022-10-04T04:34:33;9.40;99.90
38380;DHT22;38377;47.418;18.882;2022-10-04T04:37:02;9.40;99.90
38380;DHT22;38377;47.418;18.882;2022-10-04T04:39:29;9.40;99.90
38380;DHT22;38377;47.418;18.882;2022-10-04T04:44:38;9.40;99.90
38380;DHT22;38377;47.418;18.882;2022-10-04T04:47:05;9.40;99.90
38380;DHT22;38377;47.418;18.882;2022-10-04T04:49:37;9.50;99.90
38380;DHT22;38377;47.418;18.882;2022-10-04T04:52:04;9.50;99.90
38380;DHT22;38377;47.418;18.882;2022-10-04T04:54:31;9.50;99.90
38380;DHT22;38377;47.418;18.882;2022-10-04T04:56:57;9.50;99.90
38380;DHT22;38377;47.418;18.882;2022-10-04T04:59:24;9.60;99.90
38380;DHT22;38377;47.418;18.882;2022-10-04T05:01:51;9.60;99.90
38380;DHT22;38377;47.418;18.882;2022-10-04T05:04:20;9.60;99.90
38380;DHT22;38377;47.418;18.882;2022-10-04T05:06:58;9.60;99.90
38380;DHT22;38377;47.418;18.882;2022-10-04T05:09:27;9.60;99.90
38380;DHT22;38377;47.418;18.882;2022-10-04T05:12:29;9.70;99.90
38380;DHT22;38377;47.418;18.882;2022-10-04T05:14:52;9.70;99.90
38380;DHT22;38377;47.418;18.882;2022-10-04T05:17:19;9.80;99.90
38380;DHT22;38377;47.418;18.882;2022-10-04T05:19:47;9.80;99.90
38380;DHT22;38377;47.418;18.882;2022-10-04T05:22:18;9.80;99.90
38380;DHT22;38377;47.418;18.882;2022-10-04T05:24:49;9.80;99.90
38380;DHT22;38377;47.418;18.882;2022-10-04T05:27:17;9.90;99.90
38380;DHT22;38377;47.418;18.882;2022-10-04T05:33:07;9.90;99.90
38380;DHT22;38377;47.418;18.882;2022-10-04T05:36:12;9.90;99.90
38380;DHT22;38377;47.418;18.882;2022-10-04T05:38:52;10.00;99.90
38380;DHT22;38377;47.418;18.882;2022-10-04T05:44:28;10.00;99.90
38380;DHT22;38377;47.418;18.882;2022-10-04T05:46:59;10.10;99.90
38380;DHT22;38377;47.418;18.882;2022-10-04T05:49:33;10.10;99.90
38380;DHT22;38377;47.418;18.882;2022-10-04T05:52:05;10.10;99.90
38380;DHT22;38377;47.418;18.882;2022-10-04T05:54:37;10.20;99.90
38380;DHT22;38377;47.418;18.882;2022-10-04T06:05:27;11.00;99.90
38380;DHT22;38377;47.418;18.882;2022-10-04T06:08:14;11.20;99.90
38380;DHT22;38377;47.418;18.882;2022-10-04T06:13:49;11.50;99.90
38380;DHT22;38377;47.418;18.882;2022-10-04T06:19:29;11.50;99.90
38380;DHT22;38377;47.418;18.882;2022-10-04T06:24:31;11.40;99.90
38380;DHT22;38377;47.418;18.882;2022-10-04T06:29:57;11.60;99.90
38380;DHT22;38377;47.418;18.882;2022-10-04T06:50:03;11.40;99.90
38380;DHT22;38377;47.418;18.882;2022-10-04T06:52:57;11.50;99.90
38380;DHT22;38377;47.418;18.882;2022-10-04T06:55:52;11.70;99.90
38380;DHT22;38377;47.418;18.882;2022-10-04T06:58:29;11.90;99.90
38380;DHT22;38377;47.418;18.882;2022-10-04T07:01:28;12.10;99.90
38380;DHT22;38377;47.418;18.882;2022-10-04T07:06:48;11.90;99.90
38380;DHT22;38377;47.418;18.882;2022-10-04T07:09:25;11.80;99.90
38380;DHT22;38377;47.418;18.882;2022-10-04T07:12:03;11.70;99.90
38380;DHT22;38377;47.418;18.882;2022-10-04T07:14:38;11.70;99.90
38380;DHT22;38377;47.418;18.882;2022-10-04T07:17:29;11.80;99.90
38380;DHT22;38377;47.418;18.882;2022-10-04T07:19:59;12.00;99.90
38380;DHT22;38377;47.418;18.882;2022-10-04T07:22:34;12.00;99.90
38380;DHT22;38377;47.418;18.882;2022-10-04T07:25:23;12.20;99.90
38380;DHT22;38377;47.418;18.882;2022-10-04T07:28:03;12.50;99.90
38380;DHT22;38377;47.418;18.882;2022-10-04T07:31:09;12.70;99.90
38380;DHT22;38377;47.418;18.882;2022-10-04T07:33:43;13.10;99.90
38380;DHT22;38377;47.418;18.882;2022-10-04T07:36:12;13.30;99.90
38380;DHT22;38377;47.418;18.882;2022-10-04T07:39:08;13.40;99.90
38380;DHT22;38377;47.418;18.882;2022-10-04T07:42:21;13.50;99.90
38380;DHT22;38377;47.418;18.882;2022-10-04T07:44:45;13.60;99.90
38380;DHT22;38377;47.418;18.882;2022-10-04T07:47:24;13.60;99.90
38380;DHT22;38377;47.418;18.882;2022-10-04T07:49:52;13.50;99.90
38380;DHT22;38377;47.418;18.882;2022-10-04T07:52:28;13.60;99.90
38380;DHT22;38377;47.418;18.882;2022-10-04T07:54:58;13.80;99.90
38380;DHT22;38377;47.418;18.882;2022-10-04T07:57:54;14.10;99.90
38380;DHT22;38377;47.418;18.882;2022-10-04T08:00:25;14.00;99.90
38380;DHT22;38377;47.418;18.882;2022-10-04T08:05:34;14.30;99.90
38380;DHT22;38377;47.418;18.882;2022-10-04T08:08:07;14.70;99.90
38380;DHT22;38377;47.418;18.882;2022-10-04T08:16:57;15.20;99.90
38380;DHT22;38377;47.418;18.882;2022-10-04T08:28:01;14.20;99.90
38380;DHT22;38377;47.418;18.882;2022-10-04T08:33:54;14.00;99.90
38380;DHT22;38377;47.418;18.882;2022-10-04T08:56:23;14.60;99.90
38380;DHT22;38377;47.418;18.882;2022-10-04T08:59:20;14.90;99.90
38380;DHT22;38377;47.418;18.882;2022-10-04T09:30:19;14.40;99.90
38380;DHT22;38377;47.418;18.882;2022-10-04T09:47:50;15.10;99.90
38380;DHT22;38377;47.418;18.882;2022-10-04T09:53:37;15.30;99.90
38380;DHT22;38377;47.418;18.882;2022-10-04T10:12:24;14.40;99.90
38380;DHT22;38377;47.418;18.882;2022-10-04T10:15:31;14.40;99.90
38380;DHT22;38377;47.418;18.882;2022-10-04T10:18:21;14.40;99.90
38380;DHT22;38377;47.418;18.882;2022-10-04T10:21:24;14.40;99.90
38380;DHT22;38377;47.418;18.882;2022-10-04T10:27:14;14.30;99.90
38380;DHT22;38377;47.418;18.882;2022-10-04T10:30:02;14.30;99.90
38380;DHT22;38377;47.418;18.882;2022-10-04T10:38:35;14.10;99.90
38380;DHT22;38377;47.418;18.882;2022-10-04T11:41:21;14.70;99.90
38380;DHT22;38377;47.418;18.882;2022-10-04T11:44:03;15.30;99.90
38380;DHT22;38377;47.418;18.882;2022-10-04T11:47:04;15.70;99.90
38380;DHT22;38377;47.418;18.882;2022-10-04T11:52:09;15.40;99.90
38380;DHT22;38377;47.418;18.882;2022-10-04T11:57:28;15.10;99.90
38380;DHT22;38377;47.418;18.882;2022-10-04T12:05:57;15.50;99.90
38380;DHT22;38377;47.418;18.882;2022-10-04T12:33:44;14.80;99.90
38380;DHT22;38377;47.418;18.882;2022-10-04T12:39:01;14.30;99.90
38380;DHT22;38377;47.418;18.882;2022-10-04T12:41:35;14.30;99.90
38380;DHT22;38377;47.418;18.882;2022-10-04T12:53:24;14.10;99.90
38380;DHT22;38377;47.418;18.882;2022-10-04T13:04:20;14.40;99.90
38380;DHT22;38377;47.418;18.882;2022-10-04T13:12:55;15.10;99.90
38380;DHT22;38377;47.418;18.882;2022-10-04T13:15:51;15.30;99.90
38380;DHT22;38377;47.418;18.882;2022-10-04T13:21:51;15.40;99.90
38380;DHT22;38377;47.418;18.882;2022-10-04T13:26:56;15.50;99.90
38380;DHT22;38377;47.418;18.882;2022-10-04T13:29:48;15.60;99.90
38380;DHT22;38377;47.418;18.882;2022-10-04T13:32:29;15.70;99.90
38380;DHT22;38377;47.418;18.882;2022-10-04T13:35:11;15.80;99.90
38380;DHT22;38377;47.418;18.882;2022-10-04T13:41:15;15.80;99.90
38380;DHT22;38377;47.418;18.882;2022-10-04T13:47:00;15.90;99.90
38380;DHT22;38377;47.418;18.882;2022-10-04T13:56:06;15.80;99.90
38380;DHT22;38377;47.418;18.882;2022-10-04T14:16:55;15.80;99.90
38380;DHT22;38377;47.418;18.882;2022-10-04T14:36:29;15.50;99.90
38380;DHT22;38377;47.418;18.882;2022-10-04T14:45:19;15.60;99.90
38380;DHT22;38377;47.418;18.882;2022-10-04T14:53:59;15.40;99.90
38380;DHT22;38377;47.418;18.882;2022-10-04T15:05:28;15.20;99.90
38380;DHT22;38377;47.418;18.882;2022-10-04T15:10:51;14.90;99.90
38380;DHT22;38377;47.418;18.882;2022-10-04T15:21:01;14.70;99.90
38380;DHT22;38377;47.418;18.882;2022-10-04T15:23:34;14.60;99.90
38380;DHT22;38377;47.418;18.882;2022-10-04T15:29:01;14.60;99.90
38380;DHT22;38377;47.418;18.882;2022-10-04T15:31:39;14.60;99.90
38380;DHT22;38377;47.418;18.882;2022-10-04T15:42:33;14.30;99.90
38380;DHT22;38377;47.418;18.882;2022-10-04T15:48:08;14.10;99.90
38380;DHT22;38377;47.418;18.882;2022-10-04T16:07:18;13.50;99.90
38380;DHT22;38377;47.418;18.882;2022-10-04T16:32:25;12.60;99.90
38380;DHT22;38377;47.418;18.882;2022-10-04T16:35:01;12.50;99.90
38380;DHT22;38377;47.418;18.882;2022-10-04T16:37:38;12.40;99.90
38380;DHT22;38377;47.418;18.882;2022-10-04T16:42:56;12.20;99.90
38380;DHT22;38377;47.418;18.882;2022-10-04T16:48:26;11.40;99.90
38380;DHT22;38377;47.418;18.882;2022-10-04T17:13:31;10.60;99.90
38380;DHT22;38377;47.418;18.882;2022-10-04T17:16:11;10.60;99.90
38380;DHT22;38377;47.418;18.882;2022-10-04T17:19:16;10.70;99.90
38380;DHT22;38377;47.418;18.882;2022-10-04T17:30:29;10.20;99.90
38380;DHT22;38377;47.418;18.882;2022-10-04T17:33:34;10.00;99.90
38380;DHT22;38377;47.418;18.882;2022-10-04T17:42:01;10.10;99.90
38380;DHT22;38377;47.418;18.882;2022-10-04T17:47:44;10.30;99.90
38380;DHT22;38377;47.418;18.882;2022-10-04T17:50:44;10.40;99.90
38380;DHT22;38377;47.418;18.882;2022-10-04T17:53:33;10.40;99.90
38380;DHT22;38377;47.418;18.882;2022-10-04T17:56:47;10.50;99.90
38380;DHT22;38377;47.418;18.882;2022-10-04T17:59:23;10.50;99.90
38380;DHT22;38377;47.418;18.882;2022-10-04T18:02:02;10.40;99.90
38380;DHT22;38377;47.418;18.882;2022-10-04T18:04:33;10.40;99.90
38380;DHT22;38377;47.418;18.882;2022-10-04T18:07:03;10.40;99.90
38380;DHT22;38377;47.418;18.882;2022-10-04T18:09:41;10.30;99.90
38380;DHT22;38377;47.418;18.882;2022-10-04T18:12:22;10.20;99.90
38380;DHT22;38377;47.418;18.882;2022-10-04T18:15:01;10.00;99.90
38380;DHT22;38377;47.418;18.882;2022-10-04T18:17:50;9.80;99.90
38380;DHT22;38377;47.418;18.882;2022-10-04T18:20:30;9.70;99.90
38380;DHT22;38377;47.418;18.882;2022-10-04T18:23:17;9.60;99.90
38380;DHT22;38377;47.418;18.882;2022-10-04T18:25:45;9.50;99.90
38380;DHT22;38377;47.418;18.882;2022-10-04T18:28:19;9.60;99.90
38380;DHT22;38377;47.418;18.882;2022-10-04T18:34:00;9.50;99.90
38380;DHT22;38377;47.418;18.882;2022-10-04T18:38:41;9.30;99.90
38380;DHT22;38377;47.418;18.882;2022-10-04T18:41:20;9.40;99.90
38380;DHT22;38377;47.418;18.882;2022-10-04T18:44:04;9.30;99.90
38380;DHT22;38377;47.418;18.882;2022-10-04T18:46:39;9.20;99.90
38380;DHT22;38377;47.418;18.882;2022-10-04T18:49:16;9.10;99.90
38380;DHT22;38377;47.418;18.882;2022-10-04T18:54:41;8.90;99.90
38380;DHT22;38377;47.418;18.882;2022-10-04T19:00:11;8.90;99.90
38380;DHT22;38377;47.418;18.882;2022-10-04T19:03:00;8.80;99.90
38380;DHT22;38377;47.418;18.882;2022-10-04T19:05:34;8.70;99.90
38380;DHT22;38377;47.418;18.882;2022-10-04T19:10:43;8.70;99.90
38380;DHT22;38377;47.418;18.882;2022-10-04T19:16:42;9.30;99.90
38380;DHT22;38377;47.418;18.882;2022-10-04T19:22:37;9.40;99.90
38380;DHT22;38377;47.418;18.882;2022-10-04T19:28:19;9.40;99.90
38380;DHT22;38377;47.418;18.882;2022-10-04T19:39:20;9.60;99.90
38380;DHT22;38377;47.418;18.882;2022-10-04T19:52:24;9.10;99.90
38380;DHT22;38377;47.418;18.882;2022-10-04T19:54:58;9.10;99.90
38380;DHT22;38377;47.418;18.882;2022-10-04T19:57:36;9.20;99.90
38380;DHT22;38377;47.418;18.882;2022-10-04T20:00:08;9.20;99.90
38380;DHT22;38377;47.418;18.882;2022-10-04T20:02:38;9.10;99.90
38380;DHT22;38377;47.418;18.882;2022-10-04T20:05:14;9.00;99.90
38380;DHT22;38377;47.418;18.882;2022-10-04T20:07:47;8.90;99.90
38380;DHT22;38377;47.418;18.882;2022-10-04T20:10:31;8.80;99.90
38380;DHT22;38377;47.418;18.882;2022-10-04T20:15:57;8.70;99.90
38380;DHT22;38377;47.418;18.882;2022-10-04T20:26:02;8.50;99.90
38380;DHT22;38377;47.418;18.882;2022-10-04T20:30:58;8.40;99.90
38380;DHT22;38377;47.418;18.882;2022-10-04T20:36:09;8.30;99.90
38380;DHT22;38377;47.418;18.882;2022-10-04T20:43:57;8.10;99.90
38380;DHT22;38377;47.418;18.882;2022-10-04T20:46:30;8.10;99.90
38380;DHT22;38377;47.418;18.882;2022-10-04T20:48:57;8.10;99.90
38380;DHT22;38377;47.418;18.882;2022-10-04T20:51:25;8.00;99.90
38380;DHT22;38377;47.418;18.882;2022-10-04T20:53:52;8.10;99.90
38380;DHT22;38377;47.418;18.882;2022-10-04T20:56:29;8.10;99.90
38380;DHT22;38377;47.418;18.882;2022-10-04T20:59:00;8.10;99.90
38380;DHT22;38377;47.418;18.882;2022-10-04T21:01:35;8.00;99.90
38380;DHT22;38377;47.418;18.882;2022-10-04T21:04:29;8.00;99.90
38380;DHT22;38377;47.418;18.882;2022-10-04T21:07:02;8.00;99.90
38380;DHT22;38377;47.418;18.882;2022-10-04T21:09:30;8.00;99.90
38380;DHT22;38377;47.418;18.882;2022-10-04T21:11:57;7.90;99.90
38380;DHT22;38377;47.418;18.882;2022-10-04T21:16:54;8.00;99.90
38380;DHT22;38377;47.418;18.882;2022-10-04T21:21:59;7.80;99.90
38380;DHT22;38377;47.418;18.882;2022-10-04T21:24:39;7.80;99.90
38380;DHT22;38377;47.418;18.882;2022-10-04T21:27:08;7.80;99.90
38380;DHT22;38377;47.418;18.882;2022-10-04T21:29:35;7.80;99.90
38380;DHT22;38377;47.418;18.882;2022-10-04T21:32:01;7.80;99.90
38380;DHT22;38377;47.418;18.882;2022-10-04T21:34:27;7.80;99.90
38380;DHT22;38377;47.418;18.882;2022-10-04T21:36:53;7.80;99.90
38380;DHT22;38377;47.418;18.882;2022-10-04T21:39:19;7.80;99.90
38380;DHT22;38377;47.418;18.882;2022-10-04T21:41:45;7.80;99.90
38380;DHT22;38377;47.418;18.882;2022-10-04T21:44:10;7.80;99.90
38380;DHT22;38377;47.418;18.882;2022-10-04T21:46:36;7.80;99.90
38380;DHT22;38377;47.418;18.882;2022-10-04T21:49:03;7.80;99.90
38380;DHT22;38377;47.418;18.882;2022-10-04T21:51:29;7.80;99.90
38380;DHT22;38377;47.418;18.882;2022-10-04T21:54:02;7.70;99.90
38380;DHT22;38377;47.418;18.882;2022-10-04T21:56:28;7.70;99.90
38380;DHT22;38377;47.418;18.882;2022-10-04T21:58:54;7.80;99.90
38380;DHT22;38377;47.418;18.882;2022-10-04T22:01:20;7.90;99.90
38380;DHT22;38377;47.418;18.882;2022-10-04T22:03:45;7.90;99.90
38380;DHT22;38377;47.418;18.882;2022-10-04T22:06:11;7.90;99.90
38380;DHT22;38377;47.418;18.882;2022-10-04T22:08:37;8.00;99.90
38380;DHT22;38377;47.418;18.882;2022-10-04T22:11:02;7.90;99.90
38380;DHT22;38377;47.418;18.882;2022-10-04T22:13:28;7.90;99.90
38380;DHT22;38377;47.418;18.882;2022-10-04T22:15:54;7.90;99.90
38380;DHT22;38377;47.418;18.882;2022-10-04T22:18:20;7.90;99.90
38380;DHT22;38377;47.418;18.882;2022-10-04T22:20:45;8.00;99.90
38380;DHT22;38377;47.418;18.882;2022-10-04T22:23:23;8.00;99.90
38380;DHT22;38377;47.418;18.882;2022-10-04T22:25:49;8.00;99.90
38380;DHT22;38377;47.418;18.882;2022-10-04T22:28:22;7.90;99.90
38380;DHT22;38377;47.418;18.882;2022-10-04T22:30:49;7.80;99.90
38380;DHT22;38377;47.418;18.882;2022-10-04T22:33:35;7.80;99.90
38380;DHT22;38377;47.418;18.882;2022-10-04T22:36:27;7.80;99.90
38380;DHT22;38377;47.418;18.882;2022-10-04T22:41:33;7.70;99.90
38380;DHT22;38377;47.418;18.882;2022-10-04T22:44:09;7.70;99.90
38380;DHT22;38377;47.418;18.882;2022-10-04T22:46:38;7.70;99.90
38380;DHT22;38377;47.418;18.882;2022-10-04T22:49:10;7.70;99.90
38380;DHT22;38377;47.418;18.882;2022-10-04T22:51:39;7.70;99.90
38380;DHT22;38377;47.418;18.882;2022-10-04T22:54:16;7.60;99.90
38380;DHT22;38377;47.418;18.882;2022-10-04T22:56:42;7.60;99.90
38380;DHT22;38377;47.418;18.882;2022-10-04T22:59:09;7.60;99.90
38380;DHT22;38377;47.418;18.882;2022-10-04T23:01:35;7.60;99.90
38380;DHT22;38377;47.418;18.882;2022-10-04T23:04:01;7.60;99.90
38380;DHT22;38377;47.418;18.882;2022-10-04T23:06:26;7.60;99.90
38380;DHT22;38377;47.418;18.882;2022-10-04T23:08:52;7.60;99.90
38380;DHT22;38377;47.418;18.882;2022-10-04T23:11:18;7.60;99.90
38380;DHT22;38377;47.418;18.882;2022-10-04T23:13:43;7.60;99.90
38380;DHT22;38377;47.418;18.882;2022-10-04T23:16:13;7.50;99.90
38380;DHT22;38377;47.418;18.882;2022-10-04T23:18:39;7.50;99.90
38380;DHT22;38377;47.418;18.882;2022-10-04T23:21:20;7.50;99.90
38380;DHT22;38377;47.418;18.882;2022-10-04T23:23:47;7.40;99.90
38380;DHT22;38377;47.418;18.882;2022-10-04T23:26:22;7.40;99.90
38380;DHT22;38377;47.418;18.882;2022-10-04T23:28:49;7.40;99.90
38380;DHT22;38377;47.418;18.882;2022-10-04T23:31:21;7.30;99.90
38380;DHT22;38377;47.418;18.882;2022-10-04T23:33:48;7.30;99.90
38380;DHT22;38377;47.418;18.882;2022-10-04T23:36:14;7.20;99.90
38380;DHT22;38377;47.418;18.882;2022-10-04T23:38:59;7.30;99.90
38380;DHT22;38377;47.418;18.882;2022-10-04T23:41:26;7.20;99.90
38380;DHT22;38377;47.418;18.882;2022-10-04T23:43:52;7.20;99.90
38380;DHT22;38377;47.418;18.882;2022-10-04T23:46:19;7.20;99.90
38380;DHT22;38377;47.418;18.882;2022-10-04T23:48:46;7.20;99.90
38380;DHT22;38377;47.418;18.882;2022-10-04T23:51:15;7.30;99.90
38380;DHT22;38377;47.418;18.882;2022-10-04T23:53:42;7.30;99.90
38380;DHT22;38377;47.418;18.882;2022-10-04T23:56:19;7.30;99.90
38380;DHT22;38377;47.418;18.882;2022-10-04T23:58:45;7.30;99.90
